createdAt,value
2019-04-25T00:01:03.303Z,49.20
2019-04-25T00:03:33.419Z,49.20
2019-04-25T00:06:02.371Z,49.20
2019-04-25T00:08:31.185Z,49.20
2019-04-25T00:11:01.634Z,49.20
2019-04-25T00:13:31.734Z,49.20
2019-04-25T00:16:01.725Z,49.30
2019-04-25T08:02:25.299Z,48.40
2019-04-25T08:04:54.367Z,49.00
2019-04-25T08:07:24.106Z,48.90
2019-04-25T08:09:54.081Z,48.90
2019-04-25T08:12:22.582Z,48.80
2019-04-25T08:14:54.185Z,48.90
2019-04-25T08:17:40.661Z,49.10
2019-04-25T08:20:09.051Z,48.90
2019-04-25T08:22:50.293Z,49.20
2019-04-25T08:25:07.658Z,49.50
2019-04-25T08:27:36.747Z,49.30
2019-04-25T08:30:06.004Z,49.00
2019-04-25T08:32:35.505Z,48.70
2019-04-25T08:35:05.587Z,47.60
2019-04-25T08:37:35.193Z,46.80
2019-04-25T08:40:05.408Z,46.90
2019-04-25T08:42:35.480Z,46.90
2019-04-25T08:45:05.607Z,47.10
2019-04-25T08:47:35.784Z,47.40
2019-04-25T08:50:26.322Z,47.50
2019-04-25T08:52:44.335Z,47.60
2019-04-25T08:55:31.355Z,47.70
2019-04-25T08:58:05.038Z,47.80
2019-04-25T09:00:59.277Z,47.90
2019-04-25T09:03:26.256Z,48.00
2019-04-25T09:05:54.658Z,48.00
2019-04-25T09:08:24.073Z,48.10
2019-04-25T09:10:53.463Z,48.10
2019-04-25T09:13:23.155Z,48.20
2019-04-25T09:15:53.918Z,48.20
2019-04-25T09:18:23.871Z,48.20
2019-04-25T09:20:53.994Z,48.20
2019-04-25T09:23:23.575Z,48.30
2019-04-25T09:25:52.216Z,48.30
2019-04-25T09:28:20.608Z,48.60
2019-04-25T09:30:48.994Z,48.50
2019-04-25T09:33:17.387Z,48.60
2019-04-25T09:35:46.081Z,48.30
2019-04-25T09:38:14.481Z,48.20
2019-04-25T09:40:44.489Z,47.70
2019-04-25T09:43:13.629Z,47.70
2019-04-25T09:45:49.926Z,47.90
2019-04-25T09:48:19.968Z,47.90
2019-04-25T09:50:50.021Z,46.40
2019-04-25T09:53:23.595Z,46.10
2019-04-25T09:55:54.304Z,46.60
2019-04-25T09:58:26.762Z,46.40
2019-04-25T10:00:56.786Z,44.80
2019-04-25T10:03:25.188Z,44.60
2019-04-25T10:05:53.582Z,45.40
2019-04-25T10:08:22.111Z,46.00
2019-04-25T10:10:50.509Z,46.60
2019-04-25T10:13:18.910Z,46.60
2019-04-25T10:15:50.558Z,46.30
2019-04-25T10:18:18.951Z,46.50
2019-04-25T10:20:47.554Z,46.20
2019-04-25T10:23:15.937Z,46.20
2019-04-25T10:25:45.125Z,46.40
2019-04-25T10:28:13.592Z,46.40
2019-04-25T10:30:42.888Z,46.50
2019-04-25T10:33:11.560Z,46.60
2019-04-25T10:35:48.169Z,46.80
2019-04-25T10:38:10.000Z,46.80
2019-04-25T10:40:39.284Z,46.70
2019-04-25T10:43:07.960Z,46.70
2019-04-25T10:45:36.629Z,46.80
2019-04-25T10:48:05.024Z,47.30
2019-04-25T10:50:34.114Z,46.80
2019-04-25T10:53:04.021Z,46.80
2019-04-25T10:55:33.244Z,46.80
2019-04-25T10:58:01.753Z,46.90
2019-04-25T11:00:31.801Z,46.80
2019-04-25T11:03:01.850Z,46.80
2019-04-25T11:05:30.244Z,46.90
2019-04-25T11:07:58.641Z,46.90
2019-04-25T11:10:27.035Z,46.80
2019-04-25T11:12:55.452Z,46.80
2019-04-25T11:15:23.887Z,46.80
2019-04-25T11:17:54.143Z,46.80
2019-04-25T11:20:30.386Z,46.80
2019-04-25T11:22:58.801Z,46.80
2019-04-25T11:25:27.184Z,46.80
2019-04-25T11:27:55.599Z,46.90
2019-04-25T11:30:25.859Z,45.40
2019-04-25T11:32:54.742Z,43.20
2019-04-25T11:35:24.146Z,42.70
2019-04-25T11:37:54.870Z,42.70
2019-04-25T11:40:27.977Z,38.90
2019-04-25T11:42:56.468Z,39.10
2019-04-25T11:45:24.909Z,40.40
2019-04-25T11:47:54.388Z,40.20
2019-04-25T11:50:23.630Z,40.70
2019-04-25T11:52:53.101Z,41.20
2019-04-25T11:55:23.779Z,41.60
2019-04-25T11:57:53.191Z,41.80
2019-04-25T12:00:24.455Z,42.00
2019-04-25T12:02:54.609Z,42.30
2019-04-25T12:05:23.540Z,43.10
2019-04-25T12:07:52.992Z,42.60
2019-04-25T12:10:24.069Z,42.80
2019-04-25T12:12:53.732Z,42.90
2019-04-25T12:15:23.957Z,43.00
2019-04-25T12:17:52.229Z,43.10
2019-04-25T12:20:20.619Z,43.20
2019-04-25T12:22:49.043Z,43.40
2019-04-25T12:25:17.443Z,43.50
2019-04-25T12:27:48.663Z,43.60
2019-04-25T12:30:15.890Z,43.60
2019-04-25T12:32:44.302Z,43.70
2019-04-25T12:35:14.250Z,43.80
2019-04-25T12:37:44.191Z,43.80
2019-04-25T12:40:14.041Z,43.90
2019-04-25T12:42:44.364Z,44.00
2019-04-25T12:45:26.557Z,44.10
2019-04-25T12:47:57.982Z,44.30
2019-04-25T12:50:26.740Z,44.30
2019-04-25T12:52:56.077Z,44.30
2019-04-25T12:55:24.476Z,44.50
2019-04-25T12:57:54.888Z,44.60
2019-04-25T13:00:24.573Z,44.70
2019-04-25T13:02:54.011Z,44.70
2019-04-25T13:05:24.305Z,44.80
2019-04-25T13:07:56.657Z,44.70
2019-04-25T13:10:23.612Z,44.80
2019-04-25T13:12:55.284Z,44.90
2019-04-25T13:15:23.457Z,44.90
2019-04-25T13:17:53.633Z,44.90
2019-04-25T13:20:22.059Z,44.90
2019-04-25T13:22:50.464Z,45.00
2019-04-25T13:25:20.503Z,45.00
2019-04-25T13:28:08.767Z,45.00
2019-04-25T13:31:04.291Z,45.10
2019-04-25T13:33:35.829Z,45.10
2019-04-25T13:36:15.112Z,45.10
2019-04-25T13:38:43.622Z,45.10
2019-04-25T13:41:13.642Z,45.10
2019-04-25T13:43:42.090Z,45.10
2019-04-25T13:46:11.128Z,45.10
2019-04-25T13:48:40.590Z,45.20
2019-04-25T13:51:08.973Z,45.20
2019-04-25T13:53:37.394Z,45.20
2019-04-25T13:56:07.046Z,45.20
2019-04-25T13:58:35.430Z,45.20
2019-04-25T14:01:12.709Z,45.20
2019-04-25T14:03:35.690Z,45.30
2019-04-25T14:06:04.805Z,45.20
2019-04-25T14:08:33.590Z,45.20
2019-04-25T14:11:05.000Z,45.20
2019-04-25T14:13:32.212Z,45.20
2019-04-25T14:16:18.372Z,45.20
2019-04-25T14:18:57.304Z,45.20
2019-04-25T14:21:26.111Z,45.30
2019-04-25T14:23:55.405Z,45.20
2019-04-25T14:26:23.797Z,45.20
2019-04-25T14:28:52.175Z,45.20
2019-04-25T14:31:35.169Z,45.20
2019-04-25T14:33:51.762Z,45.30
2019-04-25T14:36:20.215Z,45.30
2019-04-25T14:38:48.599Z,45.30
2019-04-25T14:41:16.996Z,45.20
2019-04-25T14:43:46.479Z,45.30
2019-04-25T14:46:14.968Z,45.30
2019-04-25T14:48:43.373Z,45.30
2019-04-25T14:51:11.761Z,45.30
2019-04-25T14:53:40.169Z,45.30
2019-04-25T14:56:10.195Z,45.30
2019-04-25T14:58:40.278Z,45.30
2019-04-25T15:01:08.690Z,45.30
2019-04-25T15:03:37.084Z,45.30
2019-04-25T15:06:05.467Z,45.30
2019-04-25T15:08:33.877Z,45.40
2019-04-25T15:11:02.556Z,45.40
2019-04-25T15:13:31.798Z,45.50
2019-04-25T15:16:00.553Z,45.40
2019-04-25T15:18:29.020Z,45.50
2019-04-25T15:20:57.415Z,45.50
2019-04-25T15:23:25.818Z,45.50
2019-04-25T15:25:54.213Z,45.60
2019-04-25T15:28:24.391Z,45.50
2019-04-25T15:30:53.282Z,45.50
2019-04-25T15:33:21.706Z,44.80
2019-04-25T15:35:51.753Z,44.40
2019-04-25T15:38:21.786Z,43.30
2019-04-25T15:41:04.168Z,43.50
2019-04-25T15:43:39.939Z,42.60
2019-04-25T15:46:09.963Z,41.80
2019-04-25T15:48:38.614Z,41.30
2019-04-25T15:51:07.037Z,41.60
2019-04-25T15:53:35.498Z,41.40
2019-04-25T15:56:03.910Z,40.60
2019-04-25T15:58:32.386Z,40.90
2019-04-25T16:01:00.748Z,40.30
2019-04-25T16:03:29.140Z,40.00
2019-04-25T16:05:57.527Z,40.30
2019-04-25T16:08:26.622Z,40.50
2019-04-25T16:10:56.055Z,40.30
2019-04-25T16:13:24.454Z,38.80
2019-04-25T16:15:52.826Z,40.20
2019-04-25T16:18:21.239Z,40.10
2019-04-25T16:20:49.623Z,40.60
2019-04-25T16:23:18.138Z,40.50
2019-04-25T16:25:46.522Z,40.00
2019-04-25T16:28:14.941Z,40.40
2019-04-25T16:30:43.327Z,40.50
2019-04-25T16:33:11.740Z,41.30
2019-04-25T16:35:40.123Z,41.00
2019-04-25T16:38:09.215Z,41.10
2019-04-25T16:40:37.590Z,41.30
2019-04-25T16:43:07.651Z,41.50
2019-04-25T16:45:37.779Z,41.70
2019-04-25T16:48:06.296Z,41.90
2019-04-25T16:50:35.055Z,41.90
2019-04-25T16:53:03.472Z,42.00
2019-04-25T16:55:31.854Z,42.10
2019-04-25T16:58:00.272Z,42.20
2019-04-25T17:00:42.596Z,42.30
2019-04-25T17:03:12.088Z,42.50
2019-04-25T17:05:40.728Z,42.50
2019-04-25T17:08:09.303Z,41.10
2019-04-25T17:10:37.704Z,41.30
2019-04-25T17:13:06.824Z,40.60
2019-04-25T17:15:36.847Z,40.90
2019-04-25T17:18:25.179Z,39.30
2019-04-25T17:21:04.075Z,39.40
2019-04-25T17:23:32.630Z,39.50
2019-04-25T17:26:01.087Z,39.30
2019-04-25T17:28:31.394Z,39.50
2019-04-25T17:31:18.016Z,39.20
2019-04-25T17:34:04.283Z,39.30
2019-04-25T17:36:40.786Z,39.20
2019-04-25T17:39:26.889Z,39.90
2019-04-25T17:41:55.271Z,40.00
2019-04-25T17:44:23.728Z,39.60
2019-04-25T17:46:52.113Z,40.50
2019-04-25T17:49:20.529Z,40.50
2019-04-25T17:51:48.926Z,41.00
2019-04-25T17:54:18.566Z,40.60
2019-04-25T17:56:47.527Z,40.70
2019-04-25T17:59:15.945Z,41.00
2019-04-25T18:01:44.377Z,40.80
2019-04-25T18:04:12.821Z,40.30
2019-04-25T18:06:42.007Z,39.40
2019-04-25T18:09:10.533Z,40.50
2019-04-25T18:11:38.920Z,41.40
2019-04-25T18:14:07.322Z,41.10
2019-04-25T18:16:40.382Z,40.80
2019-04-25T18:19:10.516Z,40.50
2019-04-25T18:21:38.919Z,39.90
2019-04-25T18:24:23.968Z,39.90
2019-04-25T18:26:56.651Z,40.10
2019-04-25T18:29:26.720Z,40.40
2019-04-25T18:31:55.170Z,40.70
2019-04-25T18:34:25.236Z,40.80
2019-04-25T18:37:07.895Z,41.00
2019-04-25T18:39:40.696Z,41.00
2019-04-25T18:42:13.524Z,41.50
2019-04-25T18:44:41.998Z,41.90
2019-04-25T18:47:10.409Z,42.10
2019-04-25T18:49:40.404Z,42.30
2019-04-25T18:52:10.511Z,42.30
2019-04-25T18:54:43.322Z,42.50
2019-04-25T18:57:31.338Z,42.60
2019-04-25T19:00:04.331Z,42.80
2019-04-25T19:02:40.275Z,42.80
2019-04-25T19:05:19.333Z,43.00
2019-04-25T19:07:47.724Z,43.00
2019-04-25T19:10:16.492Z,43.10
2019-04-25T19:12:45.192Z,43.10
2019-04-25T19:15:13.692Z,43.20
2019-04-25T19:17:43.206Z,43.20
2019-04-25T19:20:12.279Z,43.30
2019-04-25T19:22:41.487Z,43.50
2019-04-25T19:25:09.870Z,43.40
2019-04-25T19:27:38.255Z,43.50
2019-04-25T19:30:07.303Z,43.60
2019-04-25T19:32:35.692Z,43.60
2019-04-25T19:35:05.585Z,43.70
2019-04-25T19:37:33.968Z,43.80
2019-04-25T19:40:06.713Z,43.80
2019-04-25T19:42:36.734Z,43.90
2019-04-25T19:45:06.938Z,43.90
2019-04-25T19:47:35.325Z,43.90
2019-04-25T19:50:04.192Z,44.10
2019-04-25T19:52:32.583Z,44.10
2019-04-25T19:55:00.972Z,44.20
2019-04-25T19:57:29.359Z,44.20
2019-04-25T19:59:57.760Z,44.20
2019-04-25T20:02:39.560Z,44.30
2019-04-25T20:05:11.224Z,44.40
2019-04-25T20:07:43.732Z,44.70
2019-04-25T20:10:25.015Z,44.50
2019-04-25T20:12:55.001Z,45.00
2019-04-25T20:15:23.960Z,44.80
2019-04-25T20:17:52.335Z,44.80
2019-04-25T20:20:20.725Z,44.70
2019-04-25T20:22:50.202Z,44.70
2019-04-25T20:25:18.743Z,44.60
2019-04-25T20:27:47.144Z,44.60
2019-04-25T20:30:15.522Z,44.80
2019-04-25T20:32:44.741Z,44.70
2019-04-25T20:35:13.952Z,44.60
2019-04-25T20:37:42.341Z,44.70
2019-04-25T20:40:10.732Z,44.70
2019-04-25T20:42:39.116Z,44.70
2019-04-25T20:45:08.648Z,45.00
2019-04-25T20:47:37.074Z,45.30
2019-04-25T20:50:06.040Z,45.30
2019-04-25T20:52:34.447Z,45.10
2019-04-25T20:55:02.944Z,45.00
2019-04-25T20:57:31.345Z,45.00
2019-04-25T20:59:59.745Z,45.00
2019-04-25T21:02:28.129Z,45.20
2019-04-25T21:04:56.866Z,45.20
2019-04-25T21:07:25.255Z,45.30
2019-04-25T21:09:53.663Z,45.20
2019-04-25T21:12:22.093Z,45.30
2019-04-25T21:14:56.181Z,45.30
2019-04-25T21:17:29.485Z,45.30
2019-04-25T21:19:59.637Z,45.40
2019-04-25T21:22:28.139Z,45.40
2019-04-25T21:24:56.549Z,45.80
2019-04-25T21:27:25.026Z,45.80
2019-04-25T21:29:53.484Z,45.70
2019-04-25T21:32:23.444Z,45.70
2019-04-25T21:34:53.025Z,45.60
2019-04-25T21:37:21.879Z,45.70
2019-04-25T21:39:56.128Z,45.60
2019-04-25T21:42:26.799Z,45.80
2019-04-25T21:44:56.082Z,45.80
2019-04-25T21:47:24.642Z,45.80
2019-04-25T21:49:54.287Z,45.90
2019-04-25T21:52:23.223Z,45.80
2019-04-25T21:54:53.116Z,45.90
2019-04-25T21:57:21.796Z,45.80
2019-04-25T22:00:00.390Z,46.20
2019-04-25T22:02:21.067Z,46.30
2019-04-25T22:04:49.660Z,46.30
2019-04-25T22:07:18.870Z,46.90
2019-04-25T22:09:47.854Z,46.50
2019-04-25T22:12:16.635Z,46.50
2019-04-25T22:14:45.018Z,46.50
2019-04-25T22:17:13.699Z,46.80
2019-04-25T22:19:42.197Z,46.80
2019-04-25T22:22:11.036Z,46.40
2019-04-25T22:24:39.417Z,46.30
2019-04-25T22:27:09.446Z,46.20
2019-04-25T22:29:39.470Z,46.00
2019-04-25T22:32:24.882Z,46.10
2019-04-25T22:34:58.272Z,46.00
2019-04-25T22:37:27.085Z,46.10
2019-04-25T22:39:55.567Z,46.10
2019-04-25T22:42:23.946Z,46.10
2019-04-25T22:44:52.334Z,46.10
2019-04-25T22:47:20.724Z,46.10
2019-04-25T22:49:49.110Z,46.20
2019-04-25T22:52:19.318Z,46.10
2019-04-25T22:54:47.716Z,46.10
2019-04-25T22:57:16.399Z,46.20
2019-04-25T22:59:44.997Z,46.20
2019-04-25T23:02:15.019Z,46.20
2019-04-25T23:04:45.387Z,46.20
2019-04-25T23:07:14.536Z,46.20
2019-04-25T23:09:42.948Z,46.20
2019-04-25T23:12:11.734Z,46.20
2019-04-25T23:14:41.155Z,46.20
2019-04-25T23:17:09.675Z,46.10
2019-04-25T23:19:38.059Z,46.10
2019-04-25T23:22:07.340Z,46.10
2019-04-25T23:24:37.520Z,46.10
2019-04-25T23:27:10.476Z,46.00
2019-04-25T23:29:38.899Z,46.00
2019-04-25T23:32:09.049Z,46.00
2019-04-25T23:34:37.456Z,46.00
2019-04-25T23:37:06.199Z,46.00
2019-04-25T23:39:35.556Z,46.00
2019-04-25T23:42:03.948Z,46.00
2019-04-25T23:44:32.355Z,46.00
2019-04-25T23:47:00.737Z,46.00
2019-04-25T23:49:29.161Z,46.00
2019-04-25T23:51:57.743Z,46.00
2019-04-25T23:54:26.154Z,46.00
2019-04-25T23:56:56.342Z,46.00
2019-04-25T23:59:24.746Z,46.00
